sensor_id;sensor_type;location;lat;lon;timestamp;pressure;altitude;pressure_sealevel;temperature;humidity
72857;BME280;62742;52.136;4.500;2022-11-15T00:00:56;100879.47;;;6.99;91.12
72857;BME280;62742;52.136;4.500;2022-11-15T00:03:25;100872.50;;;6.84;91.67
72857;BME280;62742;52.136;4.500;2022-11-15T00:05:53;100869.91;;;6.87;92.24
72857;BME280;62742;52.136;4.500;2022-11-15T00:08:20;100876.00;;;6.91;92.31
72857;BME280;62742;52.136;4.500;2022-11-15T00:10:55;100876.84;;;6.91;92.43
72857;BME280;62742;52.136;4.500;2022-11-15T00:13:22;100879.50;;;6.88;92.59
72857;BME280;62742;52.136;4.500;2022-11-15T00:15:49;100868.13;;;7.25;90.77
72857;BME280;62742;52.136;4.500;2022-11-15T00:18:16;100873.38;;;7.06;91.12
72857;BME280;62742;52.136;4.500;2022-11-15T00:20:44;100864.66;;;7.14;91.22
72857;BME280;62742;52.136;4.500;2022-11-15T00:23:11;100869.88;;;7.14;90.80
72857;BME280;62742;52.136;4.500;2022-11-15T00:25:37;100867.25;;;7.37;89.70
72857;BME280;62742;52.136;4.500;2022-11-15T00:28:04;100865.53;;;7.08;90.83
72857;BME280;62742;52.136;4.500;2022-11-15T00:30:31;100868.16;;;6.99;91.84
72857;BME280;62742;52.136;4.500;2022-11-15T00:33:04;100863.78;;;6.91;92.15
72857;BME280;62742;52.136;4.500;2022-11-15T00:35:33;100855.09;;;7.02;91.90
72857;BME280;62742;52.136;4.500;2022-11-15T00:38:00;100859.44;;;7.00;92.30
72857;BME280;62742;52.136;4.500;2022-11-15T00:40:28;100858.59;;;6.98;92.22
72857;BME280;62742;52.136;4.500;2022-11-15T00:42:54;100851.59;;;6.97;92.52
72857;BME280;62742;52.136;4.500;2022-11-15T00:45:21;100851.59;;;6.97;92.73
72857;BME280;62742;52.136;4.500;2022-11-15T00:47:48;100836.81;;;6.99;92.90
72857;BME280;62742;52.136;4.500;2022-11-15T00:50:15;100838.53;;;7.10;91.92
72857;BME280;62742;52.136;4.500;2022-11-15T00:52:41;100845.50;;;7.07;92.60
72857;BME280;62742;52.136;4.500;2022-11-15T00:55:16;100840.28;;;7.08;92.80
72857;BME280;62742;52.136;4.500;2022-11-15T00:57:44;100848.09;;;7.05;93.05
72857;BME280;62742;52.136;4.500;2022-11-15T01:00:12;100839.41;;;7.05;93.10
72857;BME280;62742;52.136;4.500;2022-11-15T01:02:39;100840.28;;;7.08;93.22
72857;BME280;62742;52.136;4.500;2022-11-15T01:05:06;100842.91;;;7.19;92.87
72857;BME280;62742;52.136;4.500;2022-11-15T01:07:33;100842.88;;;7.18;92.94
72857;BME280;62742;52.136;4.500;2022-11-15T01:10:00;100835.06;;;7.19;92.85
72857;BME280;62742;52.136;4.500;2022-11-15T01:12:26;100830.69;;;7.20;92.95
72857;BME280;62742;52.136;4.500;2022-11-15T01:14:53;100825.47;;;7.18;92.88
72857;BME280;62742;52.136;4.500;2022-11-15T01:17:20;100824.56;;;7.30;92.56
72857;BME280;62742;52.136;4.500;2022-11-15T01:19:46;100824.53;;;7.38;92.34
72857;BME280;62742;52.136;4.500;2022-11-15T01:22:13;100813.22;;;7.33;92.54
72857;BME280;62742;52.136;4.500;2022-11-15T01:24:39;100806.25;;;7.35;92.75
72857;BME280;62742;52.136;4.500;2022-11-15T01:27:05;100796.69;;;7.27;92.60
72857;BME280;62742;52.136;4.500;2022-11-15T01:29:32;100802.81;;;7.26;93.50
72857;BME280;62742;52.136;4.500;2022-11-15T01:31:59;100801.03;;;7.28;93.30
72857;BME280;62742;52.136;4.500;2022-11-15T01:34:25;100799.31;;;7.20;93.60
72857;BME280;62742;52.136;4.500;2022-11-15T01:36:51;100795.81;;;7.35;93.60
72857;BME280;62742;52.136;4.500;2022-11-15T01:39:18;100795.81;;;7.35;93.41
72857;BME280;62742;52.136;4.500;2022-11-15T01:41:45;100795.75;;;7.47;92.96
72857;BME280;62742;52.136;4.500;2022-11-15T01:47:14;100796.66;;;7.40;93.63
72857;BME280;62742;52.136;4.500;2022-11-15T01:50:19;100795.78;;;7.38;93.91
72857;BME280;62742;52.136;4.500;2022-11-15T01:52:54;100790.53;;;7.45;93.89
72857;BME280;62742;52.136;4.500;2022-11-15T01:55:25;100784.41;;;7.53;93.46
72857;BME280;62742;52.136;4.500;2022-11-15T01:57:57;100782.69;;;7.48;93.59
72857;BME280;62742;52.136;4.500;2022-11-15T02:00:29;100785.25;;;7.62;93.58
72857;BME280;62742;52.136;4.500;2022-11-15T02:02:56;100777.41;;;7.58;93.20
72857;BME280;62742;52.136;4.500;2022-11-15T02:05:23;100780.88;;;7.58;93.43
72857;BME280;62742;52.136;4.500;2022-11-15T02:07:50;100770.31;;;7.81;92.77
72857;BME280;62742;52.136;4.500;2022-11-15T02:10:19;100763.41;;;7.73;93.00
72857;BME280;62742;52.136;4.500;2022-11-15T02:12:49;100765.16;;;7.67;93.60
72857;BME280;62742;52.136;4.500;2022-11-15T02:15:18;100756.44;;;7.68;93.89
72857;BME280;62742;52.136;4.500;2022-11-15T02:20:53;100752.03;;;7.75;93.25
72857;BME280;62742;52.136;4.500;2022-11-15T02:23:55;100745.94;;;7.73;93.61
72857;BME280;62742;52.136;4.500;2022-11-15T02:27:08;100740.72;;;7.72;94.18
72857;BME280;62742;52.136;4.500;2022-11-15T02:32:54;100739.84;;;7.76;94.45
72857;BME280;62742;52.136;4.500;2022-11-15T02:35:37;100731.97;;;7.79;94.70
72857;BME280;62742;52.136;4.500;2022-11-15T02:38:24;100736.31;;;7.80;95.13
72857;BME280;62742;52.136;4.500;2022-11-15T02:41:07;100732.84;;;7.81;95.20
72857;BME280;62742;52.136;4.500;2022-11-15T02:43:51;100729.31;;;7.88;95.24
72857;BME280;62742;52.136;4.500;2022-11-15T02:46:45;100723.16;;;7.94;95.28
72857;BME280;62742;52.136;4.500;2022-11-15T02:49:45;100723.16;;;7.92;95.22
72857;BME280;62742;52.136;4.500;2022-11-15T02:52:21;100728.38;;;7.95;95.26
72857;BME280;62742;52.136;4.500;2022-11-15T02:54:57;100722.28;;;7.96;95.38
72857;BME280;62742;52.136;4.500;2022-11-15T02:57:52;100725.75;;;7.98;95.64
72857;BME280;62742;52.136;4.500;2022-11-15T03:00:50;100728.34;;;8.01;95.51
72857;BME280;62742;52.136;4.500;2022-11-15T03:12:10;100718.63;;;8.19;95.49
72857;BME280;62742;52.136;4.500;2022-11-15T03:14:53;100712.47;;;8.23;95.33
72857;BME280;62742;52.136;4.500;2022-11-15T03:17:48;100712.44;;;8.24;95.30
72857;BME280;62742;52.136;4.500;2022-11-15T03:20:20;100707.22;;;8.24;95.17
72857;BME280;62742;52.136;4.500;2022-11-15T03:22:47;100712.31;;;8.40;94.89
72857;BME280;62742;52.136;4.500;2022-11-15T03:25:21;100706.25;;;8.42;94.37
72857;BME280;62742;52.136;4.500;2022-11-15T03:27:54;100711.47;;;8.36;94.72
72857;BME280;62742;52.136;4.500;2022-11-15T03:30:25;100721.97;;;8.33;94.98
72857;BME280;62742;52.136;4.500;2022-11-15T03:33:00;100710.63;;;8.36;95.39
72857;BME280;62742;52.136;4.500;2022-11-15T03:35:38;100703.63;;;8.36;95.70
72857;BME280;62742;52.136;4.500;2022-11-15T03:38:24;100712.06;;;8.71;93.35
72857;BME280;62742;52.136;4.500;2022-11-15T03:43:47;100707.91;;;8.48;94.92
72857;BME280;62742;52.136;4.500;2022-11-15T03:46:28;100696.63;;;8.38;95.44
72857;BME280;62742;52.136;4.500;2022-11-15T03:49:14;100705.31;;;8.42;95.48
72857;BME280;62742;52.136;4.500;2022-11-15T03:51:45;100698.13;;;8.67;94.61
72857;BME280;62742;52.136;4.500;2022-11-15T03:54:12;100695.53;;;8.64;93.97
72857;BME280;62742;52.136;4.500;2022-11-15T03:56:39;100700.00;;;8.56;94.51
72857;BME280;62742;52.136;4.500;2022-11-15T03:59:06;100699.88;;;8.68;94.27
72857;BME280;62742;52.136;4.500;2022-11-15T04:01:32;100706.06;;;8.61;93.96
72857;BME280;62742;52.136;4.500;2022-11-15T04:03:58;100703.38;;;8.66;94.77
72857;BME280;62742;52.136;4.500;2022-11-15T04:06:25;100698.09;;;8.70;95.03
72857;BME280;62742;52.136;4.500;2022-11-15T04:08:51;100692.00;;;8.70;95.19
72857;BME280;62742;52.136;4.500;2022-11-15T04:11:17;100691.03;;;8.80;95.06
72857;BME280;62742;52.136;4.500;2022-11-15T04:13:44;100694.59;;;8.73;95.23
72857;BME280;62742;52.136;4.500;2022-11-15T04:16:10;100694.66;;;8.65;95.71
72857;BME280;62742;52.136;4.500;2022-11-15T04:18:36;100691.13;;;8.69;96.11
72857;BME280;62742;52.136;4.500;2022-11-15T04:21:03;100686.69;;;8.74;96.15
72857;BME280;62742;52.136;4.500;2022-11-15T04:23:48;100690.19;;;8.76;96.19
72857;BME280;62742;52.136;4.500;2022-11-15T04:26:22;100683.19;;;8.77;96.22
72857;BME280;62742;52.136;4.500;2022-11-15T04:28:49;100683.91;;;8.90;96.09
72857;BME280;62742;52.136;4.500;2022-11-15T04:31:34;100691.69;;;8.99;95.36
72857;BME280;62742;52.136;4.500;2022-11-15T04:34:01;100683.91;;;8.91;96.14
72857;BME280;62742;52.136;4.500;2022-11-15T04:36:27;100684.81;;;8.90;96.38
72857;BME280;62742;52.136;4.500;2022-11-15T04:39:12;100683.09;;;8.85;96.34
72857;BME280;62742;52.136;4.500;2022-11-15T04:41:38;100679.63;;;8.83;96.38
72857;BME280;62742;52.136;4.500;2022-11-15T04:44:05;100681.41;;;8.80;96.56
72857;BME280;62742;52.136;4.500;2022-11-15T04:46:31;100673.50;;;8.87;97.18
72857;BME280;62742;52.136;4.500;2022-11-15T04:48:57;100668.16;;;8.94;97.01
72857;BME280;62742;52.136;4.500;2022-11-15T04:51:24;100670.72;;;9.01;96.55
72857;BME280;62742;52.136;4.500;2022-11-15T04:53:52;100675.75;;;9.17;96.37
72857;BME280;62742;52.136;4.500;2022-11-15T04:56:19;100684.44;;;9.21;96.25
72857;BME280;62742;52.136;4.500;2022-11-15T04:58:48;100692.25;;;9.24;96.56
72857;BME280;62742;52.136;4.500;2022-11-15T05:01:16;100684.28;;;9.33;96.41
72857;BME280;62742;52.136;4.500;2022-11-15T05:03:43;100686.81;;;9.40;96.29
72857;BME280;62742;52.136;4.500;2022-11-15T05:06:29;100691.84;;;9.57;96.35
72857;BME280;62742;52.136;4.500;2022-11-15T05:08:56;100697.09;;;9.57;95.96
72857;BME280;62742;52.136;4.500;2022-11-15T05:11:23;100693.59;;;9.54;96.70
72857;BME280;62742;52.136;4.500;2022-11-15T05:13:50;100701.22;;;9.73;95.93
72857;BME280;62742;52.136;4.500;2022-11-15T05:16:17;100704.59;;;9.81;95.71
72857;BME280;62742;52.136;4.500;2022-11-15T05:18:44;100708.00;;;9.86;95.48
72857;BME280;62742;52.136;4.500;2022-11-15T05:21:13;100689.69;;;9.82;95.86
72857;BME280;62742;52.136;4.500;2022-11-15T05:23:41;100695.91;;;9.78;95.78
72857;BME280;62742;52.136;4.500;2022-11-15T05:26:08;100692.47;;;9.74;96.41
72857;BME280;62742;52.136;4.500;2022-11-15T05:28:36;100695.91;;;9.78;97.04
72857;BME280;62742;52.136;4.500;2022-11-15T05:31:05;100703.38;;;10.02;95.89
72857;BME280;62742;52.136;4.500;2022-11-15T05:33:35;100703.50;;;9.96;95.68
72857;BME280;62742;52.136;4.500;2022-11-15T05:36:12;100699.91;;;10.02;95.76
72857;BME280;62742;52.136;4.500;2022-11-15T05:38:39;100706.91;;;10.03;95.74
72857;BME280;62742;52.136;4.500;2022-11-15T05:41:06;100706.00;;;10.04;95.58
72857;BME280;62742;52.136;4.500;2022-11-15T05:43:36;100706.19;;;9.91;96.31
72857;BME280;62742;52.136;4.500;2022-11-15T05:46:06;100717.44;;;10.00;95.68
72857;BME280;62742;52.136;4.500;2022-11-15T05:48:37;100704.41;;;9.93;95.88
72857;BME280;62742;52.136;4.500;2022-11-15T05:51:07;100705.34;;;9.89;95.90
72857;BME280;62742;52.136;4.500;2022-11-15T05:53:34;100711.28;;;10.01;95.72
72857;BME280;62742;52.136;4.500;2022-11-15T05:56:04;100713.19;;;9.92;95.52
72857;BME280;62742;52.136;4.500;2022-11-15T05:58:33;100708.84;;;9.88;95.81
72857;BME280;62742;52.136;4.500;2022-11-15T06:01:00;100710.56;;;9.92;95.24
72857;BME280;62742;52.136;4.500;2022-11-15T06:03:27;100706.91;;;10.01;94.59
72857;BME280;62742;52.136;4.500;2022-11-15T06:05:53;100707.94;;;9.91;94.74
72857;BME280;62742;52.136;4.500;2022-11-15T06:08:20;100709.69;;;9.90;94.84
72857;BME280;62742;52.136;4.500;2022-11-15T06:10:46;100717.66;;;9.86;94.41
72857;BME280;62742;52.136;4.500;2022-11-15T06:13:13;100721.19;;;9.82;94.54
72857;BME280;62742;52.136;4.500;2022-11-15T06:15:39;100718.72;;;9.72;94.84
72857;BME280;62742;52.136;4.500;2022-11-15T06:18:06;100725.50;;;9.89;94.01
72857;BME280;62742;52.136;4.500;2022-11-15T06:20:32;100723.91;;;9.77;93.92
72857;BME280;62742;52.136;4.500;2022-11-15T06:23:00;100722.22;;;9.71;94.37
72857;BME280;62742;52.136;4.500;2022-11-15T06:25:28;100723.03;;;9.75;94.42
72857;BME280;62742;52.136;4.500;2022-11-15T06:27:57;100727.47;;;9.70;94.42
72857;BME280;62742;52.136;4.500;2022-11-15T06:30:25;100723.97;;;9.71;93.79
72857;BME280;62742;52.136;4.500;2022-11-15T06:32:59;100722.91;;;9.84;92.39
72857;BME280;62742;52.136;4.500;2022-11-15T06:35:28;100718.56;;;9.82;92.82
72857;BME280;62742;52.136;4.500;2022-11-15T06:37:56;100716.13;;;9.69;93.16
72857;BME280;62742;52.136;4.500;2022-11-15T06:40:27;100718.78;;;9.68;92.79
72857;BME280;62742;52.136;4.500;2022-11-15T06:42:59;100722.16;;;9.76;91.45
72857;BME280;62742;52.136;4.500;2022-11-15T06:45:26;100729.16;;;9.77;91.70
72857;BME280;62742;52.136;4.500;2022-11-15T06:47:53;100738.03;;;9.67;91.86
72857;BME280;62742;52.136;4.500;2022-11-15T06:50:20;100735.66;;;9.48;91.36
72857;BME280;62742;52.136;4.500;2022-11-15T06:52:46;100738.25;;;9.50;91.30
72857;BME280;62742;52.136;4.500;2022-11-15T06:55:13;100747.13;;;9.41;91.88
72857;BME280;62742;52.136;4.500;2022-11-15T06:57:49;100746.34;;;9.33;92.00
72857;BME280;62742;52.136;4.500;2022-11-15T07:00:19;100745.44;;;9.34;91.78
72857;BME280;62742;52.136;4.500;2022-11-15T07:02:47;100742.94;;;9.23;92.10
72857;BME280;62742;52.136;4.500;2022-11-15T07:05:15;100742.09;;;9.21;92.14
72857;BME280;62742;52.136;4.500;2022-11-15T07:07:41;100740.41;;;9.15;91.89
72857;BME280;62742;52.136;4.500;2022-11-15T07:10:08;100742.22;;;9.10;92.32
72857;BME280;62742;52.136;4.500;2022-11-15T07:12:35;100737.94;;;9.02;92.15
72857;BME280;62742;52.136;4.500;2022-11-15T07:15:02;100739.63;;;9.09;92.55
72857;BME280;62742;52.136;4.500;2022-11-15T07:17:28;100737.03;;;9.07;92.36
72857;BME280;62742;52.136;4.500;2022-11-15T07:19:55;100740.47;;;9.12;92.19
72857;BME280;62742;52.136;4.500;2022-11-15T07:22:22;100739.69;;;9.01;92.62
72857;BME280;62742;52.136;4.500;2022-11-15T07:24:48;100741.34;;;9.11;92.57
72857;BME280;62742;52.136;4.500;2022-11-15T07:27:15;100744.72;;;9.21;91.89
72857;BME280;62742;52.136;4.500;2022-11-15T07:29:41;100736.84;;;9.23;92.11
72857;BME280;62742;52.136;4.500;2022-11-15T07:32:09;100735.13;;;9.18;92.34
72857;BME280;62742;52.136;4.500;2022-11-15T07:34:36;100742.09;;;9.23;92.02
72857;BME280;62742;52.136;4.500;2022-11-15T07:37:02;100742.16;;;9.16;92.59
72857;BME280;62742;52.136;4.500;2022-11-15T07:39:29;100737.75;;;9.18;92.39
72857;BME280;62742;52.136;4.500;2022-11-15T07:41:55;100734.19;;;9.26;92.60
72857;BME280;62742;52.136;4.500;2022-11-15T07:44:41;100730.72;;;9.22;92.63
72857;BME280;62742;52.136;4.500;2022-11-15T07:47:08;100730.63;;;9.30;92.39
72857;BME280;62742;52.136;4.500;2022-11-15T07:49:35;100735.66;;;9.50;91.35
72857;BME280;62742;52.136;4.500;2022-11-15T07:52:01;100719.13;;;9.43;91.32
72857;BME280;62742;52.136;4.500;2022-11-15T07:54:28;100724.47;;;9.34;91.67
72857;BME280;62742;52.136;4.500;2022-11-15T07:56:54;100727.00;;;9.40;91.75
72857;BME280;62742;52.136;4.500;2022-11-15T07:59:21;100720.03;;;9.38;91.27
72857;BME280;62742;52.136;4.500;2022-11-15T08:01:47;100712.25;;;9.33;91.90
72857;BME280;62742;52.136;4.500;2022-11-15T08:04:14;100711.34;;;9.34;91.92
72857;BME280;62742;52.136;4.500;2022-11-15T08:06:40;100712.28;;;9.30;91.53
72857;BME280;62742;52.136;4.500;2022-11-15T08:09:07;100712.28;;;9.31;91.31
72857;BME280;62742;52.136;4.500;2022-11-15T08:11:34;100709.69;;;9.27;91.57
72857;BME280;62742;52.136;4.500;2022-11-15T08:14:00;100712.31;;;9.28;90.79
72857;BME280;62742;52.136;4.500;2022-11-15T08:16:26;100714.09;;;9.25;91.81
72857;BME280;62742;52.136;4.500;2022-11-15T08:18:53;100711.16;;;9.48;91.03
72857;BME280;62742;52.136;4.500;2022-11-15T08:21:20;100713.03;;;9.41;90.83
72857;BME280;62742;52.136;4.500;2022-11-15T08:23:48;100707.72;;;9.44;91.10
72857;BME280;62742;52.136;4.500;2022-11-15T08:26:15;100695.28;;;9.60;90.58
72857;BME280;62742;52.136;4.500;2022-11-15T08:28:42;100695.38;;;9.51;91.35
72857;BME280;62742;52.136;4.500;2022-11-15T08:31:15;100694.50;;;9.53;91.60
72857;BME280;62742;52.136;4.500;2022-11-15T08:33:44;100699.59;;;9.63;91.78
72857;BME280;62742;52.136;4.500;2022-11-15T08:36:15;100694.47;;;9.57;92.43
72857;BME280;62742;52.136;4.500;2022-11-15T08:38:43;100688.13;;;9.70;91.63
72857;BME280;62742;52.136;4.500;2022-11-15T08:41:14;100689.03;;;9.69;92.08
72857;BME280;62742;52.136;4.500;2022-11-15T08:43:57;100681.78;;;9.86;91.07
72857;BME280;62742;52.136;4.500;2022-11-15T08:46:24;100686.03;;;9.92;91.11
72857;BME280;62742;52.136;4.500;2022-11-15T08:48:51;100676.53;;;9.86;91.35
72857;BME280;62742;52.136;4.500;2022-11-15T08:51:17;100679.50;;;10.19;89.58
72857;BME280;62742;52.136;4.500;2022-11-15T08:53:44;100686.59;;;10.13;89.93
72857;BME280;62742;52.136;4.500;2022-11-15T08:56:11;100682.13;;;10.18;89.36
72857;BME280;62742;52.136;4.500;2022-11-15T08:58:40;100677.88;;;10.12;89.56
72857;BME280;62742;52.136;4.500;2022-11-15T09:01:14;100674.06;;;10.32;89.30
72857;BME280;62742;52.136;4.500;2022-11-15T09:03:43;100674.84;;;10.37;89.01
72857;BME280;62742;52.136;4.500;2022-11-15T09:06:10;100682.84;;;10.29;89.70
72857;BME280;62742;52.136;4.500;2022-11-15T09:08:37;100678.34;;;10.37;89.35
72857;BME280;62742;52.136;4.500;2022-11-15T09:11:05;100684.25;;;10.50;88.76
72857;BME280;62742;52.136;4.500;2022-11-15T09:13:33;100672.59;;;10.65;87.67
72857;BME280;62742;52.136;4.500;2022-11-15T09:16:01;100678.88;;;10.58;87.51
72857;BME280;62742;52.136;4.500;2022-11-15T09:18:27;100677.03;;;10.61;87.54
72857;BME280;62742;52.136;4.500;2022-11-15T09:20:58;100673.44;;;10.67;86.52
72857;BME280;62742;52.136;4.500;2022-11-15T09:23:26;100678.59;;;10.72;86.06
72857;BME280;62742;52.136;4.500;2022-11-15T09:26:01;100676.81;;;10.74;85.77
72857;BME280;62742;52.136;4.500;2022-11-15T09:28:29;100677.28;;;10.49;87.36
72857;BME280;62742;52.136;4.500;2022-11-15T09:30:57;100677.72;;;10.73;85.02
72857;BME280;62742;52.136;4.500;2022-11-15T09:33:26;100681.75;;;10.89;84.66
72857;BME280;62742;52.136;4.500;2022-11-15T09:35:54;100687.78;;;10.96;84.07
72857;BME280;62742;52.136;4.500;2022-11-15T09:38:26;100678.13;;;10.96;85.07
72857;BME280;62742;52.136;4.500;2022-11-15T09:41:15;100685.38;;;11.27;82.64
72857;BME280;62742;52.136;4.500;2022-11-15T09:47:38;100675.56;;;11.35;82.73
72857;BME280;62742;52.136;4.500;2022-11-15T09:53:31;100667.66;;;11.35;82.06
72857;BME280;62742;52.136;4.500;2022-11-15T09:56:37;100659.38;;;11.54;81.49
72857;BME280;62742;52.136;4.500;2022-11-15T10:04:39;100645.16;;;11.61;81.70
72857;BME280;62742;52.136;4.500;2022-11-15T10:12:38;100610.19;;;11.93;80.35
72857;BME280;62742;52.136;4.500;2022-11-15T10:15:18;100617.13;;;11.97;79.61
72857;BME280;62742;52.136;4.500;2022-11-15T10:18:04;100620.28;;;12.12;80.49
72857;BME280;62742;52.136;4.500;2022-11-15T10:20:54;100610.94;;;12.33;78.66
72857;BME280;62742;52.136;4.500;2022-11-15T10:23:24;100616.06;;;12.39;76.77
72857;BME280;62742;52.136;4.500;2022-11-15T10:26:00;100608.31;;;12.66;76.60
72857;BME280;62742;52.136;4.500;2022-11-15T10:28:30;100612.88;;;12.59;76.39
72857;BME280;62742;52.136;4.500;2022-11-15T10:30:59;100604.47;;;12.78;77.56
72857;BME280;62742;52.136;4.500;2022-11-15T10:33:37;100606.72;;;12.90;76.21
72857;BME280;62742;52.136;4.500;2022-11-15T10:46:48;100569.34;;;13.35;75.48
72857;BME280;62742;52.136;4.500;2022-11-15T10:49:32;100569.28;;;13.37;74.37
72857;BME280;62742;52.136;4.500;2022-11-15T10:54:41;100564.41;;;13.23;73.74
72857;BME280;62742;52.136;4.500;2022-11-15T10:57:38;100568.25;;;13.13;73.02
72857;BME280;62742;52.136;4.500;2022-11-15T11:10:39;100559.81;;;13.29;72.85
72857;BME280;62742;52.136;4.500;2022-11-15T11:13:28;100564.41;;;13.23;72.41
72857;BME280;62742;52.136;4.500;2022-11-15T11:21:57;100548.00;;;13.13;73.38
72857;BME280;62742;52.136;4.500;2022-11-15T11:33:48;100503.00;;;13.18;72.57
72857;BME280;62742;52.136;4.500;2022-11-15T11:36:40;100501.69;;;13.33;71.00
72857;BME280;62742;52.136;4.500;2022-11-15T11:42:39;100497.31;;;13.32;72.42
72857;BME280;62742;52.136;4.500;2022-11-15T11:45:38;100499.13;;;13.29;73.43
72857;BME280;62742;52.136;4.500;2022-11-15T11:48:26;100495.25;;;13.41;72.98
72857;BME280;62742;52.136;4.500;2022-11-15T11:54:52;100482.31;;;13.05;73.12
72857;BME280;62742;52.136;4.500;2022-11-15T11:58:03;100474.78;;;13.20;73.47
72857;BME280;62742;52.136;4.500;2022-11-15T12:03:50;100458.03;;;13.49;71.15
72857;BME280;62742;52.136;4.500;2022-11-15T12:06:31;100456.91;;;13.56;70.33
72857;BME280;62742;52.136;4.500;2022-11-15T12:09:06;100458.63;;;13.57;70.61
72857;BME280;62742;52.136;4.500;2022-11-15T12:14:31;100442.59;;;13.63;70.75
72857;BME280;62742;52.136;4.500;2022-11-15T12:17:02;100431.03;;;13.66;69.98
72857;BME280;62742;52.136;4.500;2022-11-15T12:19:29;100425.53;;;13.47;70.66
72857;BME280;62742;52.136;4.500;2022-11-15T12:22:23;100424.63;;;13.48;70.69
72857;BME280;62742;52.136;4.500;2022-11-15T12:27:38;100418.03;;;13.85;70.33
72857;BME280;62742;52.136;4.500;2022-11-15T12:30:19;100407.63;;;13.82;69.61
72857;BME280;62742;52.136;4.500;2022-11-15T12:32:58;100412.16;;;14.02;69.16
72857;BME280;62742;52.136;4.500;2022-11-15T12:35:42;100400.94;;;14.19;68.84
72857;BME280;62742;52.136;4.500;2022-11-15T12:38:12;100392.59;;;14.08;68.74
72857;BME280;62742;52.136;4.500;2022-11-15T12:41:16;100395.22;;;14.08;67.79
72857;BME280;62742;52.136;4.500;2022-11-15T12:43:46;100389.41;;;14.21;69.20
72857;BME280;62742;52.136;4.500;2022-11-15T12:49:01;100387.25;;;14.31;68.10
72857;BME280;62742;52.136;4.500;2022-11-15T13:15:33;100344.88;;;13.89;68.48
72857;BME280;62742;52.136;4.500;2022-11-15T13:18:26;100338.06;;;13.81;67.81
72857;BME280;62742;52.136;4.500;2022-11-15T13:21:03;100326.88;;;13.75;69.19
72857;BME280;62742;52.136;4.500;2022-11-15T13:24:03;100333.88;;;13.76;68.48
72857;BME280;62742;52.136;4.500;2022-11-15T13:26:31;100323.22;;;13.79;68.23
72857;BME280;62742;52.136;4.500;2022-11-15T13:28:58;100322.91;;;13.63;68.94
72857;BME280;62742;52.136;4.500;2022-11-15T13:31:35;100320.56;;;13.55;68.45
72857;BME280;62742;52.136;4.500;2022-11-15T13:34:45;100305.50;;;13.57;67.82
72857;BME280;62742;52.136;4.500;2022-11-15T13:39:48;100296.38;;;13.17;69.94
72857;BME280;62742;52.136;4.500;2022-11-15T13:42:19;100295.56;;;13.15;69.13
72857;BME280;62742;52.136;4.500;2022-11-15T13:44:58;100281.94;;;13.02;70.92
72857;BME280;62742;52.136;4.500;2022-11-15T13:47:27;100286.66;;;12.93;70.76
72857;BME280;62742;52.136;4.500;2022-11-15T13:49:59;100287.38;;;12.98;71.18
72857;BME280;62742;52.136;4.500;2022-11-15T13:52:30;100278.94;;;12.88;72.14
72857;BME280;62742;52.136;4.500;2022-11-15T13:55:13;100266.84;;;12.81;71.14
72857;BME280;62742;52.136;4.500;2022-11-15T13:57:50;100266.81;;;13.07;69.97
72857;BME280;62742;52.136;4.500;2022-11-15T14:00:41;100260.88;;;13.01;69.52
72857;BME280;62742;52.136;4.500;2022-11-15T14:03:22;100251.38;;;12.97;69.98
72857;BME280;62742;52.136;4.500;2022-11-15T14:06:06;100251.69;;;12.87;69.87
72857;BME280;62742;52.136;4.500;2022-11-15T14:08:42;100240.59;;;12.78;70.72
72857;BME280;62742;52.136;4.500;2022-11-15T14:11:33;100235.66;;;12.94;69.40
72857;BME280;62742;52.136;4.500;2022-11-15T14:16:38;100221.84;;;12.60;70.78
72857;BME280;62742;52.136;4.500;2022-11-15T14:19:11;100221.00;;;12.60;71.46
72857;BME280;62742;52.136;4.500;2022-11-15T14:25:37;100211.06;;;12.68;69.60
72857;BME280;62742;52.136;4.500;2022-11-15T14:30:54;100202.16;;;12.70;69.62
72857;BME280;62742;52.136;4.500;2022-11-15T14:33:33;100203.19;;;12.66;69.69
72857;BME280;62742;52.136;4.500;2022-11-15T14:38:30;100185.53;;;12.43;71.37
72857;BME280;62742;52.136;4.500;2022-11-15T14:40:57;100180.91;;;12.50;70.38
72857;BME280;62742;52.136;4.500;2022-11-15T14:43:24;100177.44;;;12.49;70.42
72857;BME280;62742;52.136;4.500;2022-11-15T14:45:51;100175.16;;;12.39;71.52
72857;BME280;62742;52.136;4.500;2022-11-15T14:48:17;100171.56;;;12.41;70.82
72857;BME280;62742;52.136;4.500;2022-11-15T14:50:44;100176.81;;;12.41;70.96
72857;BME280;62742;52.136;4.500;2022-11-15T14:53:12;100170.66;;;12.42;71.43
72857;BME280;62742;52.136;4.500;2022-11-15T14:55:41;100163.75;;;12.38;70.96
72857;BME280;62742;52.136;4.500;2022-11-15T14:58:09;100164.69;;;12.37;71.19
72857;BME280;62742;52.136;4.500;2022-11-15T15:00:38;100160.69;;;12.25;71.91
72857;BME280;62742;52.136;4.500;2022-11-15T15:03:07;100151.75;;;12.29;71.81
72857;BME280;62742;52.136;4.500;2022-11-15T15:05:39;100149.34;;;12.48;70.46
72857;BME280;62742;52.136;4.500;2022-11-15T15:08:08;100147.50;;;12.25;71.69
72857;BME280;62742;52.136;4.500;2022-11-15T15:10:38;100147.94;;;12.38;71.39
72857;BME280;62742;52.136;4.500;2022-11-15T15:13:21;100153.19;;;12.13;72.41
72857;BME280;62742;52.136;4.500;2022-11-15T15:15:51;100139.28;;;12.09;72.80
72857;BME280;62742;52.136;4.500;2022-11-15T15:18:18;100140.06;;;12.11;73.09
72857;BME280;62742;52.136;4.500;2022-11-15T15:20:55;100132.88;;;12.16;72.59
72857;BME280;62742;52.136;4.500;2022-11-15T15:23:29;100135.22;;;11.99;73.95
72857;BME280;62742;52.136;4.500;2022-11-15T15:25:57;100134.16;;;12.05;73.44
72857;BME280;62742;52.136;4.500;2022-11-15T15:28:24;100135.84;;;12.06;73.76
72857;BME280;62742;52.136;4.500;2022-11-15T15:30:51;100124.75;;;11.97;74.19
72857;BME280;62742;52.136;4.500;2022-11-15T15:33:18;100126.72;;;11.91;75.00
72857;BME280;62742;52.136;4.500;2022-11-15T15:35:45;100127.16;;;12.04;73.66